sensor_id;sensor_type;location;lat;lon;timestamp;P1;durP1;ratioP1;P2;durP2;ratioP2
78875;SDS011;68253;52.506;5.486;2023-07-29T00:01:32;7.45;;;2.47;;
78875;SDS011;68253;52.506;5.486;2023-07-29T00:03:59;6.25;;;2.13;;
78875;SDS011;68253;52.506;5.486;2023-07-29T00:06:26;7.05;;;2.28;;
78875;SDS011;68253;52.506;5.486;2023-07-29T00:08:52;5.80;;;1.95;;
78875;SDS011;68253;52.506;5.486;2023-07-29T00:11:19;5.75;;;1.83;;
78875;SDS011;68253;52.506;5.486;2023-07-29T00:13:45;7.25;;;2.10;;
78875;SDS011;68253;52.506;5.486;2023-07-29T00:16:12;7.97;;;2.03;;
78875;SDS011;68253;52.506;5.486;2023-07-29T00:18:41;5.88;;;1.85;;
78875;SDS011;68253;52.506;5.486;2023-07-29T00:21:07;5.63;;;1.88;;
78875;SDS011;68253;52.506;5.486;2023-07-29T00:23:33;6.65;;;1.70;;
78875;SDS011;68253;52.506;5.486;2023-07-29T00:25:59;4.95;;;1.45;;
78875;SDS011;68253;52.506;5.486;2023-07-29T00:28:25;5.25;;;1.48;;
78875;SDS011;68253;52.506;5.486;2023-07-29T00:30:51;4.82;;;1.30;;
78875;SDS011;68253;52.506;5.486;2023-07-29T00:33:17;5.30;;;1.40;;
78875;SDS011;68253;52.506;5.486;2023-07-29T00:35:45;6.68;;;1.60;;
78875;SDS011;68253;52.506;5.486;2023-07-29T00:38:11;3.72;;;0.95;;
78875;SDS011;68253;52.506;5.486;2023-07-29T00:40:37;4.15;;;1.17;;
78875;SDS011;68253;52.506;5.486;2023-07-29T00:43:03;4.35;;;1.33;;
78875;SDS011;68253;52.506;5.486;2023-07-29T00:45:30;3.67;;;1.10;;
78875;SDS011;68253;52.506;5.486;2023-07-29T00:47:57;4.07;;;1.30;;
78875;SDS011;68253;52.506;5.486;2023-07-29T00:50:23;4.22;;;1.13;;
78875;SDS011;68253;52.506;5.486;2023-07-29T00:52:52;3.88;;;1.00;;
78875;SDS011;68253;52.506;5.486;2023-07-29T00:55:18;3.97;;;0.90;;
78875;SDS011;68253;52.506;5.486;2023-07-29T00:57:45;1.98;;;0.60;;
78875;SDS011;68253;52.506;5.486;2023-07-29T01:00:14;3.10;;;0.70;;
78875;SDS011;68253;52.506;5.486;2023-07-29T01:02:44;1.95;;;0.70;;
78875;SDS011;68253;52.506;5.486;2023-07-29T01:05:12;3.38;;;0.70;;
78875;SDS011;68253;52.506;5.486;2023-07-29T01:10:32;2.60;;;0.68;;
78875;SDS011;68253;52.506;5.486;2023-07-29T01:15:54;4.57;;;0.68;;
78875;SDS011;68253;52.506;5.486;2023-07-29T01:18:25;2.90;;;0.70;;
78875;SDS011;68253;52.506;5.486;2023-07-29T01:20:57;4.78;;;0.70;;
78875;SDS011;68253;52.506;5.486;2023-07-29T01:23:26;3.08;;;0.75;;
78875;SDS011;68253;52.506;5.486;2023-07-29T01:25:55;3.80;;;0.60;;
78875;SDS011;68253;52.506;5.486;2023-07-29T01:28:21;2.38;;;0.55;;
78875;SDS011;68253;52.506;5.486;2023-07-29T01:30:49;2.30;;;0.50;;
78875;SDS011;68253;52.506;5.486;2023-07-29T01:33:25;3.05;;;0.63;;
78875;SDS011;68253;52.506;5.486;2023-07-29T01:35:57;4.25;;;0.70;;
78875;SDS011;68253;52.506;5.486;2023-07-29T01:38:29;4.88;;;0.70;;
78875;SDS011;68253;52.506;5.486;2023-07-29T01:41:00;3.08;;;0.80;;
78875;SDS011;68253;52.506;5.486;2023-07-29T01:43:30;3.63;;;0.57;;
78875;SDS011;68253;52.506;5.486;2023-07-29T01:45:57;3.70;;;0.77;;
78875;SDS011;68253;52.506;5.486;2023-07-29T01:48:23;2.13;;;0.50;;
78875;SDS011;68253;52.506;5.486;2023-07-29T01:50:50;1.77;;;0.50;;
78875;SDS011;68253;52.506;5.486;2023-07-29T01:53:16;1.67;;;0.40;;
78875;SDS011;68253;52.506;5.486;2023-07-29T01:55:43;3.13;;;0.50;;
78875;SDS011;68253;52.506;5.486;2023-07-29T01:58:10;2.63;;;0.43;;
78875;SDS011;68253;52.506;5.486;2023-07-29T02:00:38;5.07;;;0.88;;
78875;SDS011;68253;52.506;5.486;2023-07-29T02:03:05;3.90;;;0.90;;
78875;SDS011;68253;52.506;5.486;2023-07-29T02:05:31;2.15;;;0.55;;
78875;SDS011;68253;52.506;5.486;2023-07-29T02:07:57;3.63;;;0.88;;
78875;SDS011;68253;52.506;5.486;2023-07-29T02:10:23;2.90;;;0.80;;
78875;SDS011;68253;52.506;5.486;2023-07-29T02:12:50;3.67;;;0.70;;
78875;SDS011;68253;52.506;5.486;2023-07-29T02:15:16;2.15;;;0.50;;
78875;SDS011;68253;52.506;5.486;2023-07-29T02:17:42;3.10;;;0.60;;
78875;SDS011;68253;52.506;5.486;2023-07-29T02:20:09;3.72;;;0.93;;
78875;SDS011;68253;52.506;5.486;2023-07-29T02:22:36;1.80;;;0.60;;
78875;SDS011;68253;52.506;5.486;2023-07-29T02:25:03;3.67;;;1.00;;
78875;SDS011;68253;52.506;5.486;2023-07-29T02:27:29;2.35;;;0.60;;
78875;SDS011;68253;52.506;5.486;2023-07-29T02:29:55;4.95;;;0.80;;
78875;SDS011;68253;52.506;5.486;2023-07-29T02:32:21;4.70;;;1.00;;
78875;SDS011;68253;52.506;5.486;2023-07-29T02:34:48;6.55;;;0.77;;
78875;SDS011;68253;52.506;5.486;2023-07-29T02:37:15;5.72;;;0.73;;
78875;SDS011;68253;52.506;5.486;2023-07-29T02:39:41;2.63;;;0.80;;
78875;SDS011;68253;52.506;5.486;2023-07-29T02:42:07;3.05;;;0.80;;
78875;SDS011;68253;52.506;5.486;2023-07-29T02:44:33;5.13;;;0.90;;
78875;SDS011;68253;52.506;5.486;2023-07-29T02:46:59;3.63;;;0.80;;
78875;SDS011;68253;52.506;5.486;2023-07-29T02:49:25;3.80;;;0.70;;
78875;SDS011;68253;52.506;5.486;2023-07-29T02:51:52;4.85;;;0.90;;
78875;SDS011;68253;52.506;5.486;2023-07-29T02:54:18;3.90;;;0.80;;
78875;SDS011;68253;52.506;5.486;2023-07-29T02:56:44;2.30;;;0.70;;
78875;SDS011;68253;52.506;5.486;2023-07-29T02:59:10;4.20;;;0.60;;
78875;SDS011;68253;52.506;5.486;2023-07-29T03:01:36;3.15;;;0.68;;
78875;SDS011;68253;52.506;5.486;2023-07-29T03:04:02;4.13;;;0.90;;
78875;SDS011;68253;52.506;5.486;2023-07-29T03:06:29;3.47;;;0.75;;
78875;SDS011;68253;52.506;5.486;2023-07-29T03:08:55;4.30;;;0.88;;
78875;SDS011;68253;52.506;5.486;2023-07-29T03:11:21;5.63;;;0.80;;
78875;SDS011;68253;52.506;5.486;2023-07-29T03:13:47;4.10;;;0.80;;
78875;SDS011;68253;52.506;5.486;2023-07-29T03:16:14;3.20;;;0.75;;
78875;SDS011;68253;52.506;5.486;2023-07-29T03:18:49;4.05;;;0.60;;
78875;SDS011;68253;52.506;5.486;2023-07-29T03:21:15;5.03;;;0.90;;
78875;SDS011;68253;52.506;5.486;2023-07-29T03:23:41;3.63;;;0.80;;
78875;SDS011;68253;52.506;5.486;2023-07-29T03:26:07;6.10;;;1.20;;
78875;SDS011;68253;52.506;5.486;2023-07-29T03:31:03;2.85;;;0.80;;
78875;SDS011;68253;52.506;5.486;2023-07-29T03:33:30;6.68;;;1.30;;
78875;SDS011;68253;52.506;5.486;2023-07-29T03:35:56;8.32;;;1.23;;
78875;SDS011;68253;52.506;5.486;2023-07-29T03:38:22;6.45;;;0.98;;
78875;SDS011;68253;52.506;5.486;2023-07-29T03:40:48;4.50;;;1.00;;
78875;SDS011;68253;52.506;5.486;2023-07-29T03:43:15;3.10;;;0.80;;
78875;SDS011;68253;52.506;5.486;2023-07-29T03:45:42;4.35;;;1.00;;
78875;SDS011;68253;52.506;5.486;2023-07-29T03:48:08;3.53;;;0.80;;
78875;SDS011;68253;52.506;5.486;2023-07-29T03:50:35;3.05;;;0.70;;
78875;SDS011;68253;52.506;5.486;2023-07-29T03:53:05;5.07;;;0.90;;
78875;SDS011;68253;52.506;5.486;2023-07-29T03:55:32;5.32;;;0.90;;
78875;SDS011;68253;52.506;5.486;2023-07-29T03:57:58;4.78;;;1.13;;
78875;SDS011;68253;52.506;5.486;2023-07-29T04:00:25;7.28;;;1.13;;
78875;SDS011;68253;52.506;5.486;2023-07-29T04:02:51;4.90;;;1.10;;
78875;SDS011;68253;52.506;5.486;2023-07-29T04:05:18;6.05;;;1.00;;
78875;SDS011;68253;52.506;5.486;2023-07-29T04:07:44;5.40;;;1.15;;
78875;SDS011;68253;52.506;5.486;2023-07-29T04:10:11;3.70;;;0.90;;
78875;SDS011;68253;52.506;5.486;2023-07-29T04:12:38;2.95;;;0.70;;
78875;SDS011;68253;52.506;5.486;2023-07-29T04:15:04;4.10;;;0.90;;
78875;SDS011;68253;52.506;5.486;2023-07-29T04:17:31;5.85;;;1.00;;
78875;SDS011;68253;52.506;5.486;2023-07-29T04:19:57;5.68;;;1.00;;
78875;SDS011;68253;52.506;5.486;2023-07-29T04:22:28;4.03;;;0.90;;
78875;SDS011;68253;52.506;5.486;2023-07-29T04:24:54;5.20;;;1.25;;
78875;SDS011;68253;52.506;5.486;2023-07-29T04:27:20;5.13;;;0.90;;
78875;SDS011;68253;52.506;5.486;2023-07-29T04:29:46;7.15;;;1.20;;
78875;SDS011;68253;52.506;5.486;2023-07-29T04:32:13;6.53;;;0.90;;
78875;SDS011;68253;52.506;5.486;2023-07-29T04:34:41;5.50;;;1.30;;
78875;SDS011;68253;52.506;5.486;2023-07-29T04:37:07;4.00;;;0.80;;
78875;SDS011;68253;52.506;5.486;2023-07-29T04:39:33;4.22;;;0.95;;
78875;SDS011;68253;52.506;5.486;2023-07-29T04:42:00;6.97;;;1.27;;
78875;SDS011;68253;52.506;5.486;2023-07-29T04:44:26;4.57;;;1.02;;
78875;SDS011;68253;52.506;5.486;2023-07-29T04:46:52;3.83;;;0.93;;
78875;SDS011;68253;52.506;5.486;2023-07-29T04:49:19;7.72;;;1.27;;
78875;SDS011;68253;52.506;5.486;2023-07-29T04:51:45;6.68;;;1.02;;
78875;SDS011;68253;52.506;5.486;2023-07-29T04:54:11;9.57;;;1.55;;
78875;SDS011;68253;52.506;5.486;2023-07-29T04:56:37;5.25;;;1.10;;
78875;SDS011;68253;52.506;5.486;2023-07-29T04:59:03;7.35;;;1.60;;
78875;SDS011;68253;52.506;5.486;2023-07-29T05:01:30;5.63;;;1.10;;
78875;SDS011;68253;52.506;5.486;2023-07-29T05:03:56;6.95;;;1.27;;
78875;SDS011;68253;52.506;5.486;2023-07-29T05:06:24;6.28;;;1.33;;
78875;SDS011;68253;52.506;5.486;2023-07-29T05:08:50;8.50;;;1.80;;
78875;SDS011;68253;52.506;5.486;2023-07-29T05:11:16;7.97;;;1.35;;
78875;SDS011;68253;52.506;5.486;2023-07-29T05:13:42;5.45;;;1.10;;
78875;SDS011;68253;52.506;5.486;2023-07-29T05:16:10;4.05;;;1.02;;
78875;SDS011;68253;52.506;5.486;2023-07-29T05:18:36;5.55;;;1.30;;
78875;SDS011;68253;52.506;5.486;2023-07-29T05:21:03;3.72;;;1.00;;
78875;SDS011;68253;52.506;5.486;2023-07-29T05:23:30;6.28;;;1.40;;
78875;SDS011;68253;52.506;5.486;2023-07-29T05:25:56;5.75;;;1.10;;
78875;SDS011;68253;52.506;5.486;2023-07-29T05:28:22;4.82;;;1.10;;
78875;SDS011;68253;52.506;5.486;2023-07-29T05:30:48;4.97;;;1.05;;
78875;SDS011;68253;52.506;5.486;2023-07-29T05:33:15;6.28;;;1.20;;
78875;SDS011;68253;52.506;5.486;2023-07-29T05:35:41;6.00;;;1.20;;
78875;SDS011;68253;52.506;5.486;2023-07-29T05:38:07;5.65;;;1.13;;
78875;SDS011;68253;52.506;5.486;2023-07-29T05:40:34;7.90;;;1.75;;
78875;SDS011;68253;52.506;5.486;2023-07-29T05:43:00;5.53;;;1.17;;
78875;SDS011;68253;52.506;5.486;2023-07-29T05:45:27;5.68;;;1.38;;
78875;SDS011;68253;52.506;5.486;2023-07-29T05:47:53;7.07;;;1.40;;
78875;SDS011;68253;52.506;5.486;2023-07-29T05:50:19;5.80;;;1.15;;
78875;SDS011;68253;52.506;5.486;2023-07-29T05:52:46;6.65;;;1.75;;
78875;SDS011;68253;52.506;5.486;2023-07-29T05:55:12;5.35;;;1.30;;
78875;SDS011;68253;52.506;5.486;2023-07-29T05:57:39;6.88;;;1.70;;
78875;SDS011;68253;52.506;5.486;2023-07-29T06:00:07;6.45;;;1.30;;
78875;SDS011;68253;52.506;5.486;2023-07-29T06:02:38;7.40;;;1.00;;
78875;SDS011;68253;52.506;5.486;2023-07-29T06:05:07;7.60;;;1.30;;
78875;SDS011;68253;52.506;5.486;2023-07-29T06:07:33;5.38;;;1.40;;
78875;SDS011;68253;52.506;5.486;2023-07-29T06:09:59;4.97;;;1.20;;
78875;SDS011;68253;52.506;5.486;2023-07-29T06:12:26;6.68;;;1.42;;
78875;SDS011;68253;52.506;5.486;2023-07-29T06:14:52;6.65;;;1.35;;
78875;SDS011;68253;52.506;5.486;2023-07-29T06:17:18;7.03;;;1.60;;
78875;SDS011;68253;52.506;5.486;2023-07-29T06:19:45;5.43;;;1.38;;
78875;SDS011;68253;52.506;5.486;2023-07-29T06:22:11;5.18;;;1.50;;
78875;SDS011;68253;52.506;5.486;2023-07-29T06:24:37;7.70;;;1.67;;
78875;SDS011;68253;52.506;5.486;2023-07-29T06:27:03;7.78;;;1.38;;
78875;SDS011;68253;52.506;5.486;2023-07-29T06:29:30;7.45;;;1.60;;
78875;SDS011;68253;52.506;5.486;2023-07-29T06:31:56;6.85;;;1.55;;
78875;SDS011;68253;52.506;5.486;2023-07-29T06:34:23;6.50;;;1.67;;
78875;SDS011;68253;52.506;5.486;2023-07-29T06:36:49;4.57;;;1.20;;
78875;SDS011;68253;52.506;5.486;2023-07-29T06:39:15;7.53;;;1.75;;
78875;SDS011;68253;52.506;5.486;2023-07-29T06:41:42;6.25;;;1.73;;
78875;SDS011;68253;52.506;5.486;2023-07-29T06:44:08;6.18;;;1.40;;
78875;SDS011;68253;52.506;5.486;2023-07-29T06:46:34;6.97;;;1.55;;
78875;SDS011;68253;52.506;5.486;2023-07-29T06:49:00;6.57;;;1.50;;
78875;SDS011;68253;52.506;5.486;2023-07-29T06:51:26;6.72;;;1.48;;
78875;SDS011;68253;52.506;5.486;2023-07-29T06:53:54;5.82;;;1.48;;
78875;SDS011;68253;52.506;5.486;2023-07-29T06:56:21;7.85;;;1.40;;
78875;SDS011;68253;52.506;5.486;2023-07-29T06:58:47;9.38;;;1.90;;
78875;SDS011;68253;52.506;5.486;2023-07-29T07:01:13;6.55;;;1.75;;
78875;SDS011;68253;52.506;5.486;2023-07-29T07:03:39;6.78;;;1.60;;
78875;SDS011;68253;52.506;5.486;2023-07-29T07:06:05;7.60;;;1.60;;
78875;SDS011;68253;52.506;5.486;2023-07-29T07:08:31;6.25;;;1.52;;
78875;SDS011;68253;52.506;5.486;2023-07-29T07:10:57;7.60;;;1.70;;
78875;SDS011;68253;52.506;5.486;2023-07-29T07:13:23;6.30;;;1.30;;
78875;SDS011;68253;52.506;5.486;2023-07-29T07:15:49;8.80;;;1.73;;
78875;SDS011;68253;52.506;5.486;2023-07-29T07:18:16;6.32;;;1.40;;
78875;SDS011;68253;52.506;5.486;2023-07-29T07:20:42;6.82;;;1.60;;
78875;SDS011;68253;52.506;5.486;2023-07-29T07:23:08;6.93;;;1.45;;
78875;SDS011;68253;52.506;5.486;2023-07-29T07:25:37;6.78;;;1.45;;
78875;SDS011;68253;52.506;5.486;2023-07-29T07:28:03;5.47;;;1.38;;
78875;SDS011;68253;52.506;5.486;2023-07-29T07:30:29;7.88;;;1.40;;
78875;SDS011;68253;52.506;5.486;2023-07-29T07:32:55;5.88;;;1.35;;
78875;SDS011;68253;52.506;5.486;2023-07-29T07:35:22;8.18;;;1.70;;
78875;SDS011;68253;52.506;5.486;2023-07-29T07:37:48;8.02;;;1.80;;
78875;SDS011;68253;52.506;5.486;2023-07-29T07:40:14;5.95;;;1.50;;
78875;SDS011;68253;52.506;5.486;2023-07-29T07:42:40;8.60;;;1.70;;
78875;SDS011;68253;52.506;5.486;2023-07-29T07:45:06;6.68;;;1.85;;
78875;SDS011;68253;52.506;5.486;2023-07-29T07:47:32;9.68;;;1.63;;
78875;SDS011;68253;52.506;5.486;2023-07-29T07:49:58;7.50;;;1.75;;
78875;SDS011;68253;52.506;5.486;2023-07-29T07:52:25;9.50;;;1.48;;
78875;SDS011;68253;52.506;5.486;2023-07-29T07:54:54;7.15;;;1.40;;
78875;SDS011;68253;52.506;5.486;2023-07-29T07:57:21;7.95;;;1.60;;
78875;SDS011;68253;52.506;5.486;2023-07-29T07:59:47;6.70;;;1.60;;
78875;SDS011;68253;52.506;5.486;2023-07-29T08:02:14;7.50;;;1.63;;
78875;SDS011;68253;52.506;5.486;2023-07-29T08:04:40;8.52;;;1.75;;
78875;SDS011;68253;52.506;5.486;2023-07-29T08:07:06;6.15;;;1.27;;
78875;SDS011;68253;52.506;5.486;2023-07-29T08:09:32;6.93;;;1.73;;
78875;SDS011;68253;52.506;5.486;2023-07-29T08:11:58;8.60;;;1.50;;
78875;SDS011;68253;52.506;5.486;2023-07-29T08:14:26;7.03;;;1.40;;
78875;SDS011;68253;52.506;5.486;2023-07-29T08:16:53;6.03;;;1.35;;
78875;SDS011;68253;52.506;5.486;2023-07-29T08:19:19;5.88;;;1.15;;
78875;SDS011;68253;52.506;5.486;2023-07-29T08:21:45;6.72;;;1.30;;
78875;SDS011;68253;52.506;5.486;2023-07-29T08:24:11;5.90;;;1.45;;
78875;SDS011;68253;52.506;5.486;2023-07-29T08:26:37;6.68;;;1.20;;
78875;SDS011;68253;52.506;5.486;2023-07-29T08:29:03;4.93;;;1.08;;
78875;SDS011;68253;52.506;5.486;2023-07-29T08:31:29;6.65;;;1.20;;
78875;SDS011;68253;52.506;5.486;2023-07-29T08:33:59;6.45;;;1.20;;
78875;SDS011;68253;52.506;5.486;2023-07-29T08:36:26;4.60;;;1.20;;
78875;SDS011;68253;52.506;5.486;2023-07-29T08:38:52;3.58;;;0.98;;
78875;SDS011;68253;52.506;5.486;2023-07-29T08:44:09;6.57;;;1.30;;
78875;SDS011;68253;52.506;5.486;2023-07-29T08:46:41;7.07;;;1.10;;
78875;SDS011;68253;52.506;5.486;2023-07-29T08:49:07;5.05;;;1.10;;
78875;SDS011;68253;52.506;5.486;2023-07-29T08:51:33;5.03;;;1.27;;
78875;SDS011;68253;52.506;5.486;2023-07-29T08:54:01;6.07;;;1.50;;
78875;SDS011;68253;52.506;5.486;2023-07-29T08:56:28;5.90;;;1.80;;
78875;SDS011;68253;52.506;5.486;2023-07-29T08:58:55;7.85;;;1.45;;
78875;SDS011;68253;52.506;5.486;2023-07-29T09:01:22;5.82;;;1.30;;
78875;SDS011;68253;52.506;5.486;2023-07-29T09:03:48;5.85;;;1.40;;
78875;SDS011;68253;52.506;5.486;2023-07-29T09:06:14;3.80;;;1.40;;
78875;SDS011;68253;52.506;5.486;2023-07-29T09:08:42;6.88;;;1.38;;
78875;SDS011;68253;52.506;5.486;2023-07-29T09:11:10;5.68;;;1.20;;
78875;SDS011;68253;52.506;5.486;2023-07-29T09:13:40;5.32;;;1.40;;
78875;SDS011;68253;52.506;5.486;2023-07-29T09:16:06;6.85;;;1.50;;
78875;SDS011;68253;52.506;5.486;2023-07-29T09:18:32;5.63;;;1.25;;
78875;SDS011;68253;52.506;5.486;2023-07-29T09:20:58;7.35;;;1.42;;
78875;SDS011;68253;52.506;5.486;2023-07-29T09:23:26;5.95;;;1.20;;
78875;SDS011;68253;52.506;5.486;2023-07-29T09:26:02;5.45;;;1.02;;
78875;SDS011;68253;52.506;5.486;2023-07-29T09:28:32;3.78;;;0.90;;
78875;SDS011;68253;52.506;5.486;2023-07-29T09:31:00;4.65;;;1.10;;
78875;SDS011;68253;52.506;5.486;2023-07-29T09:33:26;5.93;;;1.27;;
78875;SDS011;68253;52.506;5.486;2023-07-29T09:35:52;4.93;;;0.93;;
78875;SDS011;68253;52.506;5.486;2023-07-29T09:38:25;5.75;;;1.00;;
78875;SDS011;68253;52.506;5.486;2023-07-29T09:40:54;6.43;;;0.95;;
78875;SDS011;68253;52.506;5.486;2023-07-29T09:43:25;6.75;;;0.90;;
78875;SDS011;68253;52.506;5.486;2023-07-29T09:45:55;5.05;;;1.10;;
78875;SDS011;68253;52.506;5.486;2023-07-29T09:48:32;5.63;;;1.00;;
78875;SDS011;68253;52.506;5.486;2023-07-29T09:51:11;4.55;;;0.98;;
78875;SDS011;68253;52.506;5.486;2023-07-29T09:53:42;4.00;;;1.05;;
78875;SDS011;68253;52.506;5.486;2023-07-29T09:56:09;6.60;;;1.25;;
78875;SDS011;68253;52.506;5.486;2023-07-29T09:58:36;7.85;;;1.20;;
78875;SDS011;68253;52.506;5.486;2023-07-29T10:01:06;4.97;;;1.10;;
78875;SDS011;68253;52.506;5.486;2023-07-29T10:03:33;5.32;;;1.20;;
78875;SDS011;68253;52.506;5.486;2023-07-29T10:06:02;9.68;;;1.45;;
78875;SDS011;68253;52.506;5.486;2023-07-29T10:08:29;5.53;;;1.20;;
78875;SDS011;68253;52.506;5.486;2023-07-29T10:11:07;5.72;;;1.25;;
78875;SDS011;68253;52.506;5.486;2023-07-29T10:13:34;4.38;;;1.10;;
78875;SDS011;68253;52.506;5.486;2023-07-29T10:16:01;5.63;;;1.23;;
78875;SDS011;68253;52.506;5.486;2023-07-29T10:18:28;7.47;;;1.50;;
78875;SDS011;68253;52.506;5.486;2023-07-29T10:20:56;6.57;;;1.00;;
78875;SDS011;68253;52.506;5.486;2023-07-29T10:23:24;5.85;;;1.15;;
78875;SDS011;68253;52.506;5.486;2023-07-29T10:26:02;7.65;;;1.40;;
78875;SDS011;68253;52.506;5.486;2023-07-29T10:28:30;4.90;;;1.20;;
78875;SDS011;68253;52.506;5.486;2023-07-29T10:30:57;5.82;;;1.23;;
78875;SDS011;68253;52.506;5.486;2023-07-29T10:33:24;5.70;;;1.20;;
78875;SDS011;68253;52.506;5.486;2023-07-29T10:35:51;6.10;;;1.45;;
78875;SDS011;68253;52.506;5.486;2023-07-29T10:38:20;6.15;;;1.10;;
78875;SDS011;68253;52.506;5.486;2023-07-29T10:43:23;6.25;;;1.38;;
78875;SDS011;68253;52.506;5.486;2023-07-29T10:45:56;8.35;;;1.30;;
78875;SDS011;68253;52.506;5.486;2023-07-29T10:48:40;5.97;;;1.20;;
78875;SDS011;68253;52.506;5.486;2023-07-29T10:54:01;8.35;;;1.50;;
78875;SDS011;68253;52.506;5.486;2023-07-29T10:56:29;6.13;;;1.40;;
78875;SDS011;68253;52.506;5.486;2023-07-29T10:59:02;5.63;;;1.40;;
78875;SDS011;68253;52.506;5.486;2023-07-29T11:01:38;6.80;;;1.10;;
78875;SDS011;68253;52.506;5.486;2023-07-29T11:09:39;7.47;;;1.15;;
78875;SDS011;68253;52.506;5.486;2023-07-29T11:17:34;6.20;;;1.00;;
78875;SDS011;68253;52.506;5.486;2023-07-29T11:20:02;6.95;;;1.10;;
78875;SDS011;68253;52.506;5.486;2023-07-29T11:22:30;4.95;;;1.10;;
78875;SDS011;68253;52.506;5.486;2023-07-29T11:24:56;6.78;;;1.20;;
78875;SDS011;68253;52.506;5.486;2023-07-29T11:27:22;6.47;;;1.17;;
78875;SDS011;68253;52.506;5.486;2023-07-29T11:29:49;4.55;;;0.90;;
78875;SDS011;68253;52.506;5.486;2023-07-29T11:32:15;6.88;;;1.30;;
78875;SDS011;68253;52.506;5.486;2023-07-29T11:34:42;4.90;;;1.00;;
78875;SDS011;68253;52.506;5.486;2023-07-29T11:37:09;7.70;;;1.42;;
78875;SDS011;68253;52.506;5.486;2023-07-29T11:39:40;3.50;;;1.00;;
78875;SDS011;68253;52.506;5.486;2023-07-29T11:42:10;7.60;;;1.20;;
78875;SDS011;68253;52.506;5.486;2023-07-29T11:44:37;4.95;;;0.95;;
78875;SDS011;68253;52.506;5.486;2023-07-29T11:47:10;6.25;;;0.98;;
78875;SDS011;68253;52.506;5.486;2023-07-29T11:49:38;6.65;;;1.10;;
78875;SDS011;68253;52.506;5.486;2023-07-29T11:52:08;5.38;;;1.08;;
78875;SDS011;68253;52.506;5.486;2023-07-29T11:54:36;4.28;;;0.85;;
78875;SDS011;68253;52.506;5.486;2023-07-29T11:57:06;7.10;;;0.98;;
78875;SDS011;68253;52.506;5.486;2023-07-29T11:59:36;7.63;;;1.15;;
78875;SDS011;68253;52.506;5.486;2023-07-29T12:02:08;4.82;;;0.93;;
78875;SDS011;68253;52.506;5.486;2023-07-29T12:04:40;7.53;;;1.23;;
78875;SDS011;68253;52.506;5.486;2023-07-29T12:07:07;5.82;;;0.85;;
78875;SDS011;68253;52.506;5.486;2023-07-29T12:09:35;7.03;;;1.30;;
78875;SDS011;68253;52.506;5.486;2023-07-29T12:12:03;7.53;;;1.10;;
78875;SDS011;68253;52.506;5.486;2023-07-29T12:14:30;4.82;;;1.13;;
78875;SDS011;68253;52.506;5.486;2023-07-29T12:16:56;4.65;;;1.10;;
78875;SDS011;68253;52.506;5.486;2023-07-29T12:19:30;5.40;;;1.10;;
78875;SDS011;68253;52.506;5.486;2023-07-29T12:21:58;7.60;;;1.00;;
78875;SDS011;68253;52.506;5.486;2023-07-29T12:24:25;6.40;;;1.10;;
78875;SDS011;68253;52.506;5.486;2023-07-29T12:26:51;7.03;;;1.13;;
78875;SDS011;68253;52.506;5.486;2023-07-29T12:29:18;7.20;;;1.35;;
78875;SDS011;68253;52.506;5.486;2023-07-29T12:31:48;5.25;;;1.00;;
78875;SDS011;68253;52.506;5.486;2023-07-29T12:34:18;5.63;;;1.20;;
78875;SDS011;68253;52.506;5.486;2023-07-29T12:36:46;3.90;;;0.88;;
78875;SDS011;68253;52.506;5.486;2023-07-29T12:39:21;6.32;;;1.20;;
78875;SDS011;68253;52.506;5.486;2023-07-29T12:41:51;3.47;;;0.95;;
78875;SDS011;68253;52.506;5.486;2023-07-29T12:44:18;5.07;;;1.10;;
78875;SDS011;68253;52.506;5.486;2023-07-29T12:46:44;4.55;;;1.08;;
78875;SDS011;68253;52.506;5.486;2023-07-29T12:49:11;6.88;;;1.30;;
78875;SDS011;68253;52.506;5.486;2023-07-29T12:51:37;3.67;;;1.00;;
78875;SDS011;68253;52.506;5.486;2023-07-29T12:54:04;5.78;;;1.10;;
78875;SDS011;68253;52.506;5.486;2023-07-29T12:56:31;6.22;;;1.27;;
78875;SDS011;68253;52.506;5.486;2023-07-29T12:58:57;5.40;;;1.20;;
78875;SDS011;68253;52.506;5.486;2023-07-29T13:01:24;3.78;;;1.15;;
78875;SDS011;68253;52.506;5.486;2023-07-29T13:03:51;4.97;;;1.23;;
78875;SDS011;68253;52.506;5.486;2023-07-29T13:06:17;4.07;;;1.17;;
78875;SDS011;68253;52.506;5.486;2023-07-29T13:08:44;5.50;;;1.05;;
78875;SDS011;68253;52.506;5.486;2023-07-29T13:11:11;6.10;;;1.10;;
78875;SDS011;68253;52.506;5.486;2023-07-29T13:13:41;3.70;;;1.00;;
78875;SDS011;68253;52.506;5.486;2023-07-29T13:16:07;3.88;;;0.85;;
78875;SDS011;68253;52.506;5.486;2023-07-29T13:18:33;4.90;;;1.00;;
78875;SDS011;68253;52.506;5.486;2023-07-29T13:21:00;2.63;;;0.55;;
78875;SDS011;68253;52.506;5.486;2023-07-29T13:23:26;2.90;;;0.73;;
78875;SDS011;68253;52.506;5.486;2023-07-29T13:25:53;2.47;;;0.60;;
78875;SDS011;68253;52.506;5.486;2023-07-29T13:28:19;2.63;;;0.63;;
78875;SDS011;68253;52.506;5.486;2023-07-29T13:30:45;3.45;;;0.75;;
78875;SDS011;68253;52.506;5.486;2023-07-29T13:33:12;2.38;;;0.60;;
78875;SDS011;68253;52.506;5.486;2023-07-29T13:35:38;2.33;;;0.50;;
78875;SDS011;68253;52.506;5.486;2023-07-29T13:38:04;3.28;;;0.77;;
78875;SDS011;68253;52.506;5.486;2023-07-29T13:40:31;0.90;;;0.50;;
78875;SDS011;68253;52.506;5.486;2023-07-29T13:42:57;1.88;;;0.50;;
78875;SDS011;68253;52.506;5.486;2023-07-29T13:45:23;2.88;;;0.60;;
78875;SDS011;68253;52.506;5.486;2023-07-29T13:47:49;2.30;;;0.47;;
78875;SDS011;68253;52.506;5.486;2023-07-29T13:50:16;3.72;;;0.90;;
78875;SDS011;68253;52.506;5.486;2023-07-29T13:52:43;3.08;;;0.70;;
78875;SDS011;68253;52.506;5.486;2023-07-29T13:55:10;4.00;;;0.70;;
78875;SDS011;68253;52.506;5.486;2023-07-29T13:57:37;3.22;;;0.73;;
78875;SDS011;68253;52.506;5.486;2023-07-29T14:00:05;3.47;;;0.80;;
78875;SDS011;68253;52.506;5.486;2023-07-29T14:02:37;3.95;;;0.65;;
78875;SDS011;68253;52.506;5.486;2023-07-29T14:05:03;2.00;;;0.60;;
78875;SDS011;68253;52.506;5.486;2023-07-29T14:07:29;4.18;;;0.70;;
78875;SDS011;68253;52.506;5.486;2023-07-29T14:09:55;1.00;;;0.40;;
78875;SDS011;68253;52.506;5.486;2023-07-29T14:12:21;3.45;;;0.77;;
78875;SDS011;68253;52.506;5.486;2023-07-29T14:14:47;3.15;;;1.00;;
78875;SDS011;68253;52.506;5.486;2023-07-29T14:17:14;6.82;;;0.85;;
78875;SDS011;68253;52.506;5.486;2023-07-29T14:19:40;2.88;;;0.52;;
78875;SDS011;68253;52.506;5.486;2023-07-29T14:22:06;3.22;;;0.60;;
78875;SDS011;68253;52.506;5.486;2023-07-29T14:24:32;3.42;;;0.70;;
78875;SDS011;68253;52.506;5.486;2023-07-29T14:26:58;3.95;;;1.10;;
78875;SDS011;68253;52.506;5.486;2023-07-29T14:29:24;4.28;;;0.60;;
78875;SDS011;68253;52.506;5.486;2023-07-29T14:31:51;3.90;;;0.82;;
78875;SDS011;68253;52.506;5.486;2023-07-29T14:34:17;3.63;;;0.80;;
78875;SDS011;68253;52.506;5.486;2023-07-29T14:36:43;3.58;;;0.60;;
78875;SDS011;68253;52.506;5.486;2023-07-29T14:39:09;6.20;;;1.10;;
78875;SDS011;68253;52.506;5.486;2023-07-29T14:41:35;8.60;;;2.53;;
78875;SDS011;68253;52.506;5.486;2023-07-29T14:44:04;3.63;;;0.82;;
78875;SDS011;68253;52.506;5.486;2023-07-29T14:46:30;6.57;;;1.90;;
78875;SDS011;68253;52.506;5.486;2023-07-29T14:48:56;9.32;;;3.20;;
78875;SDS011;68253;52.506;5.486;2023-07-29T14:51:22;4.15;;;0.80;;
78875;SDS011;68253;52.506;5.486;2023-07-29T14:53:49;6.68;;;1.70;;
78875;SDS011;68253;52.506;5.486;2023-07-29T14:56:15;9.45;;;2.50;;
78875;SDS011;68253;52.506;5.486;2023-07-29T14:58:43;4.43;;;1.08;;
78875;SDS011;68253;52.506;5.486;2023-07-29T15:01:10;7.72;;;1.90;;
78875;SDS011;68253;52.506;5.486;2023-07-29T15:03:36;6.53;;;1.67;;
78875;SDS011;68253;52.506;5.486;2023-07-29T15:06:02;4.63;;;1.00;;
78875;SDS011;68253;52.506;5.486;2023-07-29T15:08:28;5.45;;;0.90;;
78875;SDS011;68253;52.506;5.486;2023-07-29T15:10:55;4.28;;;0.80;;
78875;SDS011;68253;52.506;5.486;2023-07-29T15:13:21;8.52;;;2.08;;
78875;SDS011;68253;52.506;5.486;2023-07-29T15:15:47;2.65;;;0.70;;